Time;durP1;ratioP1;P1;durP2;ratioP2;P2;SDS_P1;SDS_P2;PMS_P1;PMS_P2;Temp;Humidity;BMP_temperature;BMP_pressure;BME280_temperature;BME280_humidity;BME280_pressure;Samples;Min_cycle;Max_cycle;Signal;HPM_P1;HPM_P2
2022/10/18 00:01:08;;;;;;;2.70;2.50;;;14.00;97.30;;;;;;4973010;28;20472;-86
2022/10/18 00:03:34;;;;;;;3.33;2.23;;;14.00;97.30;;;;;;4972826;28;20249;-86
2022/10/18 00:06:01;;;;;;;2.93;2.80;;;14.00;97.30;;;;;;4973993;28;20201;-86
2022/10/18 00:08:27;;;;;;;6.20;2.60;;;14.00;97.30;;;;;;4974023;28;20421;-84
2022/10/18 00:10:53;;;;;;;11.60;2.37;;;13.90;97.30;;;;;;4957146;28;20422;-86
2022/10/18 00:13:20;;;;;;;3.10;2.87;;;13.90;97.30;;;;;;4955042;28;20956;-86
2022/10/18 00:16:08;;;;;;;1.93;1.83;;;13.90;97.30;;;;;;4977646;28;21086;-87
2022/10/18 00:18:34;;;;;;;1.97;1.87;;;13.80;97.30;;;;;;4974981;28;20576;-86
2022/10/18 00:21:09;;;;;;;4.03;3.53;;;13.80;97.30;;;;;;4992645;28;20520;-87
2022/10/18 00:23:40;;;;;;;3.10;2.83;;;13.80;97.30;;;;;;4975858;28;20213;-84
2022/10/18 00:26:11;;;;;;;1.93;1.70;;;13.70;97.30;;;;;;4974149;28;20448;-86
2022/10/18 00:28:43;;;;;;;4.73;3.40;;;13.70;97.30;;;;;;4975065;28;20428;-86
2022/10/18 00:31:26;;;;;;;1.87;1.57;;;13.70;97.30;;;;;;4974462;28;20414;-87
2022/10/18 00:33:55;;;;;;;1.73;1.63;;;13.60;97.30;;;;;;4973861;28;20424;-86
2022/10/18 00:36:20;;;;;;;6.00;2.80;;;13.60;97.30;;;;;;4974097;28;20437;-88
2022/10/18 00:38:46;;;;;;;3.90;3.17;;;13.50;97.30;;;;;;4974182;28;20427;-86
2022/10/18 00:41:16;;;;;;;3.80;2.00;;;13.50;97.30;;;;;;4973770;28;20174;-85
2022/10/18 00:44:00;;;;;;;4.10;2.50;;;13.50;97.30;;;;;;4974625;28;20944;-85
2022/10/18 00:46:29;;;;;;;4.37;3.50;;;13.50;97.30;;;;;;4975469;28;21022;-85
2022/10/18 00:48:57;;;;;;;1.70;1.60;;;13.50;97.30;;;;;;4975665;28;20429;-85
2022/10/18 00:51:26;;;;;;;3.83;3.00;;;13.50;97.30;;;;;;4975611;28;20468;-85
2022/10/18 00:53:51;;;;;;;4.37;1.90;;;13.50;97.30;;;;;;4975508;28;20447;-85
2022/10/18 00:56:17;;;;;;;4.00;2.43;;;13.50;97.30;;;;;;4975538;28;20524;-85
2022/10/18 00:58:44;;;;;;;3.30;2.03;;;13.60;97.30;;;;;;4975646;28;20216;-83
2022/10/18 01:01:10;;;;;;;11.90;2.50;;;13.60;97.30;;;;;;4975654;28;20421;-85
2022/10/18 01:03:36;;;;;;;4.00;2.63;;;13.60;97.30;;;;;;4975157;28;20987;-85
2022/10/18 01:06:02;;;;;;;3.37;2.13;;;13.70;97.30;;;;;;4993040;28;20193;-85
2022/10/18 01:08:46;;;;;;;2.67;2.47;;;13.70;97.30;;;;;;4975788;28;20409;-86
2022/10/18 01:11:32;;;;;;;1.67;1.57;;;13.70;97.30;;;;;;4977996;28;20173;-87
2022/10/18 01:14:08;;;;;;;4.30;2.90;;;13.70;97.30;;;;;;4998366;28;20428;-87
2022/10/18 01:16:59;;;;;;;4.90;2.90;;;13.70;97.30;;;;;;4998568;28;20443;-86
2022/10/18 01:19:31;;;;;;;2.30;2.10;;;13.70;97.30;;;;;;4998477;28;20417;-86
2022/10/18 01:22:18;;;;;;;2.40;2.20;;;13.70;97.30;;;;;;4978769;28;20448;-85
2022/10/18 01:25:13;;;;;;;2.17;1.80;;;13.80;97.30;;;;;;4975619;28;20425;-85
2022/10/18 01:27:55;;;;;;;2.63;2.43;;;13.80;97.30;;;;;;4969504;28;20417;-86
2022/10/18 01:30:42;;;;;;;3.00;2.23;;;13.80;97.30;;;;;;4974821;28;20409;-85
2022/10/18 01:33:19;;;;;;;3.17;2.30;;;13.80;97.30;;;;;;4975268;28;20413;-85
2022/10/18 01:35:57;;;;;;;2.93;2.30;;;13.80;97.30;;;;;;4975047;28;20443;-86
2022/10/18 01:38:24;;;;;;;2.30;2.00;;;13.80;97.30;;;;;;4975055;28;20881;-85
2022/10/18 01:40:51;;;;;;;1.90;1.83;;;13.80;97.30;;;;;;4992475;28;20412;-85
2022/10/18 01:43:20;;;;;;;2.80;2.43;;;13.80;97.30;;;;;;4975155;28;20452;-85
2022/10/18 01:45:46;;;;;;;2.03;1.87;;;13.80;97.30;;;;;;4978134;28;21099;-86
2022/10/18 01:48:13;;;;;;;2.13;1.50;;;13.90;97.30;;;;;;4978716;28;20511;-85
2022/10/18 01:50:39;;;;;;;2.93;2.47;;;13.90;97.30;;;;;;4995837;28;20436;-85
2022/10/18 01:53:05;;;;;;;2.00;1.90;;;13.80;97.30;;;;;;4978604;28;20409;-85
2022/10/18 01:55:33;;;;;;;2.50;1.90;;;13.80;97.30;;;;;;4977770;28;20611;-85
2022/10/18 01:58:30;;;;;;;1.80;1.70;;;13.80;97.30;;;;;;4978093;28;20244;-85
2022/10/18 02:01:06;;;;;;;2.73;2.40;;;13.80;97.30;;;;;;4977373;28;20409;-86
2022/10/18 02:03:35;;;;;;;1.93;1.70;;;13.80;97.30;;;;;;4978269;28;20970;-84
2022/10/18 02:06:24;;;;;;;4.50;1.70;;;13.90;97.30;;;;;;4995463;28;20942;-85
2022/10/18 02:08:56;;;;;;;2.00;1.90;;;13.90;97.30;;;;;;4978207;28;20417;-85
2022/10/18 02:11:22;;;;;;;1.43;1.33;;;13.90;97.30;;;;;;4977845;28;20448;-85
2022/10/18 02:13:55;;;;;;;2.27;2.10;;;13.90;97.30;;;;;;4977766;28;20413;-86
2022/10/18 02:16:39;;;;;;;4.40;2.50;;;13.90;97.30;;;;;;4977835;28;20204;-85
2022/10/18 02:19:29;;;;;;;3.47;2.63;;;13.90;97.30;;;;;;4978112;28;20463;-85
2022/10/18 02:21:56;;;;;;;2.60;2.40;;;13.90;97.30;;;;;;4995144;28;20503;-85
2022/10/18 02:24:26;;;;;;;5.37;2.37;;;13.90;97.30;;;;;;4977675;28;20428;-85
2022/10/18 02:26:51;;;;;;;1.93;1.83;;;13.90;97.30;;;;;;4977729;28;20440;-85
2022/10/18 02:29:17;;;;;;;3.67;2.30;;;13.90;97.30;;;;;;4977847;28;20420;-85
2022/10/18 02:31:46;;;;;;;2.97;2.50;;;13.90;97.30;;;;;;4995179;28;20162;-85
2022/10/18 02:34:20;;;;;;;2.27;2.07;;;14.00;97.30;;;;;;4977781;28;20749;-85
2022/10/18 02:36:52;;;;;;;5.53;1.90;;;14.00;97.30;;;;;;4977607;28;20441;-85
2022/10/18 02:39:34;;;;;;;1.73;1.63;;;14.00;97.30;;;;;;4977893;28;20416;-85
2022/10/18 02:42:00;;;;;;;17.73;2.50;;;14.00;97.30;;;;;;4995026;28;20448;-84
2022/10/18 02:44:26;;;;;;;2.13;1.97;;;14.00;97.30;;;;;;4994586;28;20410;-86
2022/10/18 02:46:52;;;;;;;5.97;3.17;;;14.00;97.30;;;;;;4977220;28;20194;-85
2022/10/18 02:49:17;;;;;;;2.17;2.00;;;14.00;97.30;;;;;;4977133;28;20444;-87
2022/10/18 02:51:43;;;;;;;2.70;2.53;;;14.10;97.30;;;;;;4995052;28;20406;-85
2022/10/18 02:54:09;;;;;;;2.17;2.00;;;14.10;97.30;;;;;;4977007;28;20233;-85
2022/10/18 02:56:35;;;;;;;3.93;2.80;;;14.10;97.30;;;;;;4976066;28;20268;-85
2022/10/18 02:59:02;;;;;;;3.63;2.17;;;14.10;97.30;;;;;;4977482;28;20170;-86
2022/10/18 03:01:27;;;;;;;1.77;1.70;;;14.10;97.30;;;;;;4977174;28;20500;-85
2022/10/18 03:03:53;;;;;;;1.73;1.53;;;14.10;97.30;;;;;;4977332;28;20429;-85
2022/10/18 03:06:18;;;;;;;4.30;2.20;;;14.10;97.30;;;;;;4977000;28;20204;-86
2022/10/18 03:08:44;;;;;;;3.47;2.90;;;14.10;97.30;;;;;;4977468;28;20186;-84
2022/10/18 03:11:10;;;;;;;2.53;1.60;;;14.10;97.30;;;;;;4994955;28;20182;-85
2022/10/18 03:13:35;;;;;;;4.33;2.87;;;14.10;97.30;;;;;;4977972;28;20316;-85
2022/10/18 03:16:04;;;;;;;2.10;1.93;;;14.20;97.30;;;;;;4978619;28;20205;-85
2022/10/18 03:18:33;;;;;;;2.27;2.07;;;14.20;97.30;;;;;;4978953;28;20178;-85
2022/10/18 03:21:02;;;;;;;5.50;2.80;;;14.20;97.30;;;;;;4977496;28;20432;-84
2022/10/18 03:23:30;;;;;;;2.43;2.27;;;14.20;97.30;;;;;;4977817;28;20483;-84
2022/10/18 03:26:04;;;;;;;1.70;1.70;;;14.20;97.30;;;;;;4977042;28;20476;-85
2022/10/18 03:28:30;;;;;;;4.23;2.83;;;14.20;97.30;;;;;;4977483;28;20952;-85
2022/10/18 03:31:00;;;;;;;4.30;1.80;;;14.20;97.30;;;;;;4979053;28;20413;-84
2022/10/18 03:33:29;;;;;;;1.80;1.60;;;14.20;97.30;;;;;;4975478;28;20629;-85
2022/10/18 03:35:57;;;;;;;5.30;2.73;;;14.30;97.30;;;;;;4975964;28;20445;-85
2022/10/18 03:38:23;;;;;;;6.27;2.97;;;14.30;97.30;;;;;;4976041;28;20436;-84
2022/10/18 03:40:48;;;;;;;3.50;3.10;;;14.30;97.30;;;;;;4976556;28;20425;-85
2022/10/18 03:43:14;;;;;;;3.00;2.80;;;14.30;97.30;;;;;;4977182;28;20261;-85
2022/10/18 03:45:39;;;;;;;4.80;2.60;;;14.30;97.30;;;;;;4977364;28;20558;-85
2022/10/18 03:48:05;;;;;;;2.37;1.83;;;14.40;97.30;;;;;;4977991;28;20193;-86
2022/10/18 03:50:31;;;;;;;7.47;3.73;;;14.40;97.30;;;;;;4992516;28;20170;-88
2022/10/18 03:52:56;;;;;;;4.23;2.40;;;14.40;97.30;;;;;;5001415;28;20205;-88
2022/10/18 03:55:22;;;;;;;2.33;2.13;;;14.40;97.30;;;;;;5001726;28;20186;-86
2022/10/18 03:57:47;;;;;;;1.20;1.10;;;14.40;97.30;;;;;;4991077;28;20178;-84
2022/10/18 04:00:13;;;;;;;2.87;2.10;;;14.40;97.30;;;;;;4976812;28;20182;-85
2022/10/18 04:02:39;;;;;;;5.30;3.57;;;14.50;97.30;;;;;;4976176;28;20213;-86
2022/10/18 04:05:06;;;;;;;2.20;2.03;;;14.50;97.30;;;;;;4975759;28;20178;-84
2022/10/18 04:07:32;;;;;;;7.97;2.80;;;14.50;97.30;;;;;;4993105;28;20733;-85
2022/10/18 04:09:58;;;;;;;2.10;1.67;;;14.50;97.30;;;;;;4976001;28;20417;-85
2022/10/18 04:12:24;;;;;;;1.83;1.73;;;14.50;97.30;;;;;;4976009;28;20432;-86
2022/10/18 04:14:49;;;;;;;3.70;1.90;;;14.50;97.30;;;;;;4993425;28;20174;-85
2022/10/18 04:17:15;;;;;;;5.03;3.17;;;14.50;97.30;;;;;;4975664;28;20198;-85
2022/10/18 04:19:40;;;;;;;2.70;2.43;;;14.50;97.30;;;;;;4976040;28;20665;-85
2022/10/18 04:22:06;;;;;;;8.67;2.87;;;14.50;97.30;;;;;;4975613;28;20680;-85
2022/10/18 04:24:32;;;;;;;4.40;3.93;;;14.60;97.30;;;;;;4975794;28;20184;-84
2022/10/18 04:26:57;;;;;;;4.20;2.23;;;14.60;97.30;;;;;;4992781;28;20508;-85
2022/10/18 04:29:23;;;;;;;5.17;3.50;;;14.60;97.30;;;;;;4975639;28;20166;-85
2022/10/18 04:31:48;;;;;;;2.50;2.30;;;14.60;97.30;;;;;;4975798;28;20174;-85
2022/10/18 04:34:14;;;;;;;2.03;1.90;;;14.60;97.30;;;;;;4993219;28;20178;-85
2022/10/18 04:36:39;;;;;;;2.87;2.60;;;14.60;97.30;;;;;;4975107;28;20205;-85
2022/10/18 04:39:05;;;;;;;5.63;2.63;;;14.60;97.30;;;;;;4975524;28;20174;-85
2022/10/18 04:41:30;;;;;;;2.33;2.03;;;14.60;97.30;;;;;;4975450;28;20268;-84
2022/10/18 04:43:56;;;;;;;1.93;1.87;;;14.60;97.30;;;;;;4975432;28;20189;-85
2022/10/18 04:46:21;;;;;;;1.97;1.87;;;14.60;97.30;;;;;;4975422;28;20198;-86
2022/10/18 04:48:47;;;;;;;2.60;2.40;;;14.70;97.30;;;;;;4975863;28;20174;-85
2022/10/18 04:51:13;;;;;;;3.17;2.50;;;14.70;97.30;;;;;;4975520;28;20177;-84
2022/10/18 04:53:38;;;;;;;2.63;2.10;;;14.70;97.30;;;;;;4975214;28;20180;-85
2022/10/18 04:56:04;;;;;;;2.30;1.60;;;14.70;97.30;;;;;;4992550;28;20237;-85
2022/10/18 04:58:30;;;;;;;3.80;3.10;;;14.70;97.30;;;;;;4992804;28;20185;-85
2022/10/18 05:00:56;;;;;;;4.60;2.87;;;14.80;97.30;;;;;;4975845;28;20425;-85
2022/10/18 05:03:21;;;;;;;2.73;2.33;;;14.80;97.30;;;;;;4975400;28;20190;-85
2022/10/18 05:05:47;;;;;;;3.27;3.10;;;14.80;97.30;;;;;;4975211;28;20194;-85
2022/10/18 05:08:12;;;;;;;4.10;2.57;;;14.80;97.30;;;;;;4975901;28;20177;-85
2022/10/18 05:10:38;;;;;;;1.80;1.50;;;14.80;97.30;;;;;;4975348;28;20250;-85
2022/10/18 05:13:04;;;;;;;3.63;2.07;;;14.80;97.30;;;;;;4973538;28;20181;-85
2022/10/18 05:15:29;;;;;;;2.63;2.43;;;14.80;97.30;;;;;;4970689;28;20179;-85
2022/10/18 05:17:55;;;;;;;3.33;2.60;;;14.80;97.30;;;;;;4954864;28;20189;-85
2022/10/18 05:20:20;;;;;;;2.20;2.00;;;14.80;97.30;;;;;;4959110;28;20182;-85
2022/10/18 05:22:46;;;;;;;3.20;2.03;;;14.80;97.30;;;;;;4976980;28;20196;-86
2022/10/18 05:25:11;;;;;;;2.90;2.40;;;14.90;97.30;;;;;;4964619;28;20560;-84
2022/10/18 05:27:37;;;;;;;3.67;2.30;;;14.80;97.30;;;;;;4972837;28;20189;-85
2022/10/18 05:30:03;;;;;;;4.70;1.93;;;14.90;97.30;;;;;;4959582;28;20248;-85
2022/10/18 05:32:29;;;;;;;1.80;1.70;;;14.90;97.30;;;;;;4959504;28;20213;-85
2022/10/18 05:34:54;;;;;;;3.97;2.37;;;14.90;97.30;;;;;;4960007;28;21075;-87
2022/10/18 05:37:20;;;;;;;2.60;2.40;;;14.90;97.30;;;;;;4976779;28;20195;-85
2022/10/18 05:39:46;;;;;;;8.13;3.83;;;14.90;97.30;;;;;;4959708;28;20217;-85
2022/10/18 05:42:12;;;;;;;3.63;2.90;;;14.90;97.30;;;;;;4959911;28;20536;-86
2022/10/18 05:44:37;;;;;;;2.70;2.20;;;14.90;97.30;;;;;;4959586;28;20179;-85
2022/10/18 05:47:03;;;;;;;4.40;3.97;;;14.90;97.30;;;;;;4958958;28;20449;-87
2022/10/18 05:49:29;;;;;;;6.60;3.80;;;14.90;97.30;;;;;;4959394;28;20179;-86
2022/10/18 05:51:54;;;;;;;4.47;3.30;;;14.90;97.30;;;;;;4975492;28;20182;-86
2022/10/18 05:54:20;;;;;;;10.23;3.90;;;14.90;97.30;;;;;;4958759;28;20318;-85
2022/10/18 05:56:45;;;;;;;2.60;2.43;;;15.00;97.30;;;;;;5016080;22;20240;-84
2022/10/18 05:59:11;;;;;;;2.73;2.60;;;15.00;97.30;;;;;;5031810;28;20326;-82
2022/10/18 06:01:41;;;;;;;3.47;2.23;;;15.00;97.30;;;;;;5031369;28;20674;-83
2022/10/18 06:04:08;;;;;;;5.80;4.30;;;15.00;97.30;;;;;;5031946;28;20610;-85
2022/10/18 06:06:34;;;;;;;5.07;3.60;;;15.00;97.30;;;;;;5027151;28;20444;-82
2022/10/18 06:09:02;;;;;;;7.77;3.20;;;15.00;97.30;;;;;;5012474;28;20939;-82
2022/10/18 06:11:28;;;;;;;11.83;4.27;;;15.00;97.30;;;;;;5013729;28;20447;-85
2022/10/18 06:13:56;;;;;;;3.10;2.87;;;15.00;97.30;;;;;;5012133;28;20420;-83
2022/10/18 06:16:22;;;;;;;3.20;2.27;;;15.00;97.30;;;;;;5012089;28;20444;-82
2022/10/18 06:18:49;;;;;;;3.80;2.87;;;15.00;97.30;;;;;;5011830;28;20438;-85
2022/10/18 06:21:16;;;;;;;4.60;2.60;;;15.00;97.30;;;;;;5013705;28;20408;-85
2022/10/18 06:23:42;;;;;;;7.20;3.23;;;15.00;97.30;;;;;;5013551;28;20456;-83
2022/10/18 06:26:10;;;;;;;4.83;4.23;;;15.00;97.30;;;;;;5013179;28;20419;-82
2022/10/18 06:28:36;;;;;;;4.23;2.50;;;15.00;97.30;;;;;;5013245;28;20196;-84
2022/10/18 06:31:03;;;;;;;5.80;3.77;;;15.00;97.30;;;;;;5014730;28;20448;-84
2022/10/18 06:33:33;;;;;;;4.73;3.00;;;15.00;97.30;;;;;;5013131;28;20527;-84
2022/10/18 06:36:01;;;;;;;3.03;2.83;;;15.10;97.30;;;;;;5013161;28;20412;-82
2022/10/18 06:38:28;;;;;;;2.73;2.30;;;15.10;97.30;;;;;;5013427;28;20469;-84
2022/10/18 06:40:55;;;;;;;2.60;2.40;;;15.10;97.30;;;;;;5013111;28;20506;-81
2022/10/18 06:43:21;;;;;;;6.10;3.20;;;15.20;97.30;;;;;;5013200;28;20802;-82
2022/10/18 06:45:46;;;;;;;6.33;4.73;;;15.20;97.30;;;;;;5013274;28;20478;-81
2022/10/18 06:48:12;;;;;;;1.83;1.80;;;15.20;97.30;;;;;;5013378;28;20196;-82
2022/10/18 06:50:37;;;;;;;4.30;1.87;;;15.20;97.30;;;;;;5013265;28;20177;-82
2022/10/18 06:53:05;;;;;;;8.23;4.00;;;15.20;97.30;;;;;;5013667;28;20195;-82
2022/10/18 06:55:30;;;;;;;3.40;3.20;;;15.20;97.30;;;;;;5014747;28;20173;-82
2022/10/18 06:57:56;;;;;;;6.63;3.43;;;15.20;97.30;;;;;;5012744;28;20522;-83
2022/10/18 07:00:22;;;;;;;2.87;2.67;;;15.20;97.30;;;;;;5012895;28;20614;-82
2022/10/18 07:02:47;;;;;;;11.30;3.50;;;15.20;97.30;;;;;;5012859;28;20452;-82
2022/10/18 07:05:13;;;;;;;4.10;3.63;;;15.30;97.30;;;;;;5013317;28;20177;-81
2022/10/18 07:07:38;;;;;;;5.60;3.70;;;15.30;97.30;;;;;;5011951;28;20199;-82
2022/10/18 07:10:05;;;;;;;4.00;3.27;;;15.30;97.30;;;;;;5013150;28;20177;-82
2022/10/18 07:12:31;;;;;;;7.40;5.23;;;15.30;97.30;;;;;;5012743;28;20185;-82
2022/10/18 07:14:56;;;;;;;10.70;4.37;;;15.40;97.30;;;;;;5012864;28;20412;-82
2022/10/18 07:17:22;;;;;;;3.03;2.87;;;15.40;97.30;;;;;;5012786;28;20471;-82
2022/10/18 07:19:47;;;;;;;6.50;4.83;;;15.40;97.30;;;;;;5012574;28;20323;-81
2022/10/18 07:22:13;;;;;;;5.80;4.47;;;15.40;97.30;;;;;;5012418;28;20205;-83
2022/10/18 07:24:39;;;;;;;5.00;4.70;;;15.50;97.30;;;;;;5009656;28;20231;-83
2022/10/18 07:27:04;;;;;;;4.50;4.07;;;15.50;97.30;;;;;;5011583;28;20284;-82
2022/10/18 07:29:30;;;;;;;12.43;5.53;;;15.50;97.30;;;;;;5010372;28;20188;-83
2022/10/18 07:31:56;;;;;;;19.73;4.70;;;15.50;97.30;;;;;;5009493;28;20177;-84
2022/10/18 07:34:22;;;;;;;14.40;5.50;;;15.60;97.30;;;;;;5009887;28;20443;-83
2022/10/18 07:36:47;;;;;;;7.67;4.30;;;15.60;97.30;;;;;;5010283;28;20250;-83
2022/10/18 07:39:13;;;;;;;14.10;7.67;;;15.60;97.30;;;;;;5011330;28;20173;-83
2022/10/18 07:41:38;;;;;;;9.50;5.33;;;15.60;97.30;;;;;;5009336;28;20184;-82
2022/10/18 07:44:04;;;;;;;6.20;4.43;;;15.70;97.30;;;;;;5009156;28;20181;-83
2022/10/18 07:46:30;;;;;;;4.93;3.90;;;15.70;97.30;;;;;;5010201;28;20193;-83
2022/10/18 07:48:58;;;;;;;5.63;3.87;;;15.70;97.30;;;;;;5009521;28;20440;-83
2022/10/18 07:51:24;;;;;;;8.13;5.53;;;15.70;97.30;;;;;;5009728;28;20179;-83
2022/10/18 07:53:50;;;;;;;6.50;4.70;;;15.70;97.30;;;;;;5009744;28;20408;-84
2022/10/18 07:56:19;;;;;;;3.57;2.20;;;15.70;97.30;;;;;;5009904;28;20411;-83
2022/10/18 07:58:47;;;;;;;3.37;2.10;;;15.70;97.30;;;;;;5010459;28;20188;-84
2022/10/18 08:01:14;;;;;;;6.80;3.80;;;15.70;97.30;;;;;;5010009;28;20519;-84
2022/10/18 08:03:40;;;;;;;8.17;4.00;;;15.70;97.30;;;;;;5009806;28;20469;-84
2022/10/18 08:06:08;;;;;;;2.83;1.70;;;15.60;97.30;;;;;;5009717;28;20413;-86
2022/10/18 08:08:35;;;;;;;4.07;3.27;;;15.60;97.30;;;;;;5010069;28;20448;-84
2022/10/18 08:11:02;;;;;;;3.43;2.17;;;15.60;97.30;;;;;;5010069;28;20412;-84
2022/10/18 08:13:28;;;;;;;3.87;2.30;;;15.60;97.30;;;;;;5009905;28;20954;-84
2022/10/18 08:16:03;;;;;;;2.40;1.40;;;15.50;97.30;;;;;;5010059;28;20417;-84
2022/10/18 08:18:29;;;;;;;3.33;2.47;;;15.50;97.30;;;;;;5010485;28;20981;-84
2022/10/18 08:20:54;;;;;;;3.67;3.47;;;15.50;97.30;;;;;;5011801;28;20416;-84
2022/10/18 08:23:20;;;;;;;1.57;1.50;;;15.50;97.30;;;;;;5004249;28;20514;-84
2022/10/18 08:25:45;;;;;;;1.83;1.80;;;15.50;97.30;;;;;;5011702;28;20213;-84
2022/10/18 08:28:12;;;;;;;6.20;2.60;;;15.50;97.30;;;;;;5011766;28;20204;-85
2022/10/18 08:30:38;;;;;;;1.20;1.10;;;15.50;97.30;;;;;;5011556;28;20177;-84
2022/10/18 08:33:04;;;;;;;1.30;1.20;;;15.50;97.30;;;;;;5011828;28;20511;-83
2022/10/18 08:35:30;;;;;;;1.53;1.20;;;15.50;97.30;;;;;;5010926;28;20193;-83
2022/10/18 08:37:56;;;;;;;1.00;0.90;;;15.40;97.30;;;;;;5011536;28;20530;-83
2022/10/18 08:40:22;;;;;;;1.13;1.03;;;15.40;97.30;;;;;;5011939;28;20456;-84
2022/10/18 08:43:02;;;;;;;1.20;1.07;;;15.30;97.30;;;;;;5011580;28;20201;-83
2022/10/18 08:45:28;;;;;;;1.57;1.47;;;15.30;97.30;;;;;;5012352;28;20176;-84
2022/10/18 08:47:56;;;;;;;1.43;1.30;;;15.30;97.30;;;;;;5011661;28;20463;-84
2022/10/18 08:50:27;;;;;;;1.37;1.37;;;15.20;97.30;;;;;;5011863;28;20424;-84
2022/10/18 08:53:34;;;;;;;1.90;1.20;;;15.20;97.30;;;;;;5028342;28;20423;-83
2022/10/18 08:56:14;;;;;;;1.77;1.67;;;15.20;97.30;;;;;;5015687;28;20409;-83
2022/10/18 08:58:43;;;;;;;2.03;1.90;;;15.20;97.30;;;;;;5017148;28;20439;-86
2022/10/18 09:01:26;;;;;;;2.23;2.03;;;15.10;97.30;;;;;;5017384;28;20404;-83
2022/10/18 09:04:16;;;;;;;1.80;1.17;;;15.10;97.30;;;;;;5015879;28;20451;-84
2022/10/18 09:07:03;;;;;;;2.03;1.93;;;15.10;97.30;;;;;;5017015;28;20431;-83
2022/10/18 09:09:31;;;;;;;2.70;1.30;;;15.10;97.30;;;;;;5014187;28;20494;-82
2022/10/18 09:12:21;;;;;;;1.40;1.30;;;15.10;97.30;;;;;;5016844;28;20408;-83
2022/10/18 09:15:12;;;;;;;2.13;1.57;;;15.00;97.30;;;;;;5015577;28;20408;-83
2022/10/18 09:18:01;;;;;;;1.00;0.93;;;15.10;97.30;;;;;;5015390;28;20437;-83
2022/10/18 09:20:43;;;;;;;1.83;1.70;;;15.10;97.30;;;;;;5015709;28;20423;-83
2022/10/18 09:23:27;;;;;;;1.00;1.00;;;15.10;97.30;;;;;;5012916;28;20455;-82
2022/10/18 09:26:02;;;;;;;1.63;1.23;;;15.10;97.30;;;;;;5023491;28;20486;-83
2022/10/18 09:28:54;;;;;;;0.90;0.80;;;15.10;97.30;;;;;;5022422;28;20410;-87
2022/10/18 09:31:32;;;;;;;1.17;1.07;;;15.20;97.30;;;;;;5019283;28;20799;-84
2022/10/18 09:34:07;;;;;;;2.30;1.20;;;15.20;97.30;;;;;;5026518;28;20498;-83
2022/10/18 09:36:36;;;;;;;1.17;1.13;;;15.30;97.30;;;;;;5014312;28;20443;-84
2022/10/18 09:39:13;;;;;;;1.30;1.20;;;15.30;97.30;;;;;;5015609;28;20412;-83
2022/10/18 09:42:04;;;;;;;1.20;1.10;;;15.30;97.30;;;;;;5002405;28;20482;-84
2022/10/18 09:44:44;;;;;;;1.10;1.00;;;15.40;97.30;;;;;;5009990;28;20801;-83
2022/10/18 09:47:24;;;;;;;1.73;1.60;;;15.40;97.30;;;;;;5012767;28;20447;-83
2022/10/18 09:50:02;;;;;;;8.70;2.90;;;15.50;97.30;;;;;;5012867;28;20408;-83
2022/10/18 09:52:38;;;;;;;41.60;1.90;;;15.50;97.30;;;;;;5014289;28;20400;-83
2022/10/18 09:55:13;;;;;;;2.53;1.30;;;15.50;97.30;;;;;;5014180;28;20410;-83
2022/10/18 09:57:45;;;;;;;3.03;2.70;;;15.50;97.30;;;;;;5013863;28;20475;-84
2022/10/18 10:00:19;;;;;;;1.67;1.10;;;15.50;97.30;;;;;;5014320;28;20420;-83
2022/10/18 10:02:45;;;;;;;1.67;1.57;;;15.50;97.30;;;;;;5013003;28;20489;-83
2022/10/18 10:05:14;;;;;;;1.10;1.03;;;15.50;97.30;;;;;;5012438;28;20969;-83
2022/10/18 10:07:43;;;;;;;2.60;1.97;;;15.60;97.30;;;;;;5012623;28;20193;-83
2022/10/18 10:10:28;;;;;;;4.10;1.60;;;15.60;97.30;;;;;;5012849;28;20511;-83
2022/10/18 10:13:06;;;;;;;7.10;1.67;;;15.70;97.30;;;;;;5029352;28;20420;-83
2022/10/18 10:15:32;;;;;;;5.23;2.40;;;15.70;97.30;;;;;;5013533;28;20430;-83
2022/10/18 10:18:04;;;;;;;2.20;1.80;;;15.80;97.30;;;;;;5013606;28;20482;-83
2022/10/18 10:20:43;;;;;;;2.27;2.10;;;15.80;97.30;;;;;;5012218;28;20863;-83
2022/10/18 10:23:25;;;;;;;1.80;1.70;;;15.80;97.30;;;;;;5013454;28;20466;-83
2022/10/18 10:25:54;;;;;;;1.27;1.17;;;15.80;97.30;;;;;;5012226;28;20515;-83
2022/10/18 10:28:24;;;;;;;1.23;1.13;;;15.80;97.30;;;;;;5012239;28;20471;-83
2022/10/18 10:30:50;;;;;;;1.53;1.50;;;15.80;97.30;;;;;;5012221;28;20722;-83
2022/10/18 10:33:32;;;;;;;1.57;1.47;;;15.80;97.30;;;;;;5013276;28;20416;-83
2022/10/18 10:36:00;;;;;;;2.13;1.97;;;15.90;97.30;;;;;;5012091;28;20181;-83
2022/10/18 10:38:28;;;;;;;4.40;1.67;;;15.90;97.30;;;;;;5013113;28;20426;-83
2022/10/18 10:40:54;;;;;;;2.60;2.23;;;16.00;97.30;;;;;;5011640;28;20419;-83
2022/10/18 10:43:28;;;;;;;1.23;1.20;;;16.00;97.30;;;;;;5012266;28;20466;-83
2022/10/18 10:46:10;;;;;;;1.00;1.00;;;16.10;97.30;;;;;;5012345;28;20611;-82
2022/10/18 10:48:50;;;;;;;1.50;1.43;;;16.10;97.30;;;;;;5011980;28;20428;-83
2022/10/18 10:51:36;;;;;;;1.67;1.33;;;16.20;97.30;;;;;;5012658;28;20422;-84
2022/10/18 10:54:12;;;;;;;2.50;1.13;;;16.20;97.30;;;;;;5012971;28;20506;-83
2022/10/18 10:56:59;;;;;;;1.60;1.50;;;16.20;97.30;;;;;;5011491;28;20467;-84
2022/10/18 10:59:29;;;;;;;1.80;1.50;;;16.20;97.30;;;;;;5011788;28;20427;-83
2022/10/18 11:02:13;;;;;;;1.90;1.37;;;16.20;97.30;;;;;;5011431;28;20409;-83
2022/10/18 11:04:40;;;;;;;1.43;1.30;;;16.20;97.30;;;;;;5011374;28;20412;-83
2022/10/18 11:07:14;;;;;;;1.10;1.00;;;16.20;97.30;;;;;;5011088;28;20432;-83
2022/10/18 11:09:46;;;;;;;4.17;2.17;;;16.20;97.30;;;;;;5011105;28;20411;-83
2022/10/18 11:12:38;;;;;;;1.80;1.70;;;16.20;97.30;;;;;;5012634;28;20416;-84
2022/10/18 11:15:10;;;;;;;1.47;1.30;;;16.20;97.30;;;;;;5012117;28;20420;-84
2022/10/18 11:18:00;;;;;;;2.60;1.27;;;16.20;97.30;;;;;;4990385;28;20652;-83
2022/10/18 11:20:51;;;;;;;1.10;1.00;;;16.20;97.30;;;;;;4992806;28;20405;-83
2022/10/18 11:23:18;;;;;;;1.53;1.30;;;16.20;97.30;;;;;;4991460;28;20460;-84
2022/10/18 11:26:09;;;;;;;1.33;1.00;;;16.30;97.30;;;;;;5007944;28;20418;-84
2022/10/18 11:28:38;;;;;;;1.27;1.17;;;16.30;97.30;;;;;;4992469;28;20401;-84
2022/10/18 11:31:10;;;;;;;1.00;0.90;;;16.30;97.30;;;;;;4992451;28;20420;-84
2022/10/18 11:34:01;;;;;;;2.97;1.53;;;16.30;97.30;;;;;;4992734;28;20409;-83
2022/10/18 11:36:53;;;;;;;1.27;1.17;;;16.40;97.30;;;;;;4991392;28;20441;-83
2022/10/18 11:39:35;;;;;;;1.87;1.77;;;16.40;97.30;;;;;;4976566;28;20821;-84
2022/10/18 11:42:19;;;;;;;2.10;1.60;;;16.30;97.30;;;;;;4990410;28;20531;-83
2022/10/18 11:45:03;;;;;;;1.93;1.27;;;16.30;97.30;;;;;;4992290;28;20500;-83
2022/10/18 11:47:51;;;;;;;1.20;1.10;;;16.30;97.30;;;;;;4990864;28;20437;-83
2022/10/18 11:50:37;;;;;;;1.57;1.10;;;16.30;97.30;;;;;;4992147;28;20789;-83
2022/10/18 11:53:36;;;;;;;2.50;2.20;;;16.30;97.30;;;;;;4990883;28;20479;-84
2022/10/18 11:56:02;;;;;;;1.20;1.17;;;16.30;97.30;;;;;;4990701;28;20409;-83
2022/10/18 11:58:46;;;;;;;2.27;2.07;;;16.30;97.30;;;;;;5042128;22;20497;-84
2022/10/18 12:01:31;;;;;;;1.27;1.17;;;16.30;97.30;;;;;;5021488;28;20172;-83
2022/10/18 12:03:59;;;;;;;2.30;2.03;;;16.20;97.30;;;;;;5029979;28;20466;-84
2022/10/18 12:06:32;;;;;;;2.27;1.30;;;16.20;97.30;;;;;;5031120;28;20526;-83
2022/10/18 12:09:07;;;;;;;6.17;3.50;;;16.20;97.30;;;;;;5013591;28;20554;-84
2022/10/18 12:11:45;;;;;;;1.73;1.63;;;16.10;97.30;;;;;;5029461;28;20419;-84
2022/10/18 12:14:26;;;;;;;1.37;1.27;;;16.10;97.30;;;;;;5029930;28;20505;-84
2022/10/18 12:16:53;;;;;;;1.57;1.37;;;16.10;97.30;;;;;;5015350;28;20428;-83
2022/10/18 12:19:26;;;;;;;8.50;1.87;;;16.00;97.30;;;;;;5010570;28;20429;-83
2022/10/18 12:21:53;;;;;;;1.60;1.50;;;16.00;97.30;;;;;;5009852;28;20868;-84
2022/10/18 12:24:24;;;;;;;1.13;1.03;;;16.00;97.30;;;;;;5011181;28;20421;-83
2022/10/18 12:26:52;;;;;;;3.27;1.53;;;16.00;97.30;;;;;;5011369;28;20400;-83
2022/10/18 12:29:30;;;;;;;1.80;1.27;;;16.00;97.30;;;;;;5010391;28;20421;-84
2022/10/18 12:32:09;;;;;;;1.50;1.40;;;16.00;97.30;;;;;;5009791;28;20416;-83
2022/10/18 12:34:48;;;;;;;4.10;2.60;;;16.00;97.30;;;;;;5012402;28;20400;-84
2022/10/18 12:37:32;;;;;;;4.37;2.43;;;16.00;97.30;;;;;;5010874;28;20436;-83
2022/10/18 12:40:06;;;;;;;6.67;2.37;;;16.10;97.30;;;;;;5012580;28;20406;-83
2022/10/18 12:42:33;;;;;;;1.30;1.20;;;16.10;97.30;;;;;;5011274;28;20554;-82
2022/10/18 12:45:05;;;;;;;1.83;1.73;;;16.10;97.30;;;;;;5011303;28;20479;-83
2022/10/18 12:47:31;;;;;;;2.13;1.67;;;16.20;97.30;;;;;;5011145;28;20440;-82
2022/10/18 12:50:03;;;;;;;6.57;1.77;;;16.20;97.30;;;;;;5011266;28;20433;-82
2022/10/18 12:52:32;;;;;;;3.93;2.60;;;16.20;97.30;;;;;;5011027;28;20428;-83
2022/10/18 12:55:12;;;;;;;3.33;2.03;;;16.30;97.30;;;;;;5011220;28;20518;-84
2022/10/18 12:57:53;;;;;;;2.23;1.90;;;16.30;97.30;;;;;;5010895;28;20463;-83
2022/10/18 13:00:30;;;;;;;3.27;2.53;;;16.30;97.30;;;;;;5011005;28;20435;-84
2022/10/18 13:03:11;;;;;;;6.40;3.23;;;16.30;97.30;;;;;;5010995;28;20469;-84
2022/10/18 13:05:45;;;;;;;1.33;1.30;;;16.40;97.30;;;;;;5011092;28;20806;-83